sensor_id;sensor_type;location;lat;lon;timestamp;pressure;altitude;pressure_sealevel;temperature;humidity
46199;BME280;31928;52.104;10.030;2023-03-05T00:01:18;100815.00;;;7.28;53.17
46199;BME280;31928;52.104;10.030;2023-03-05T00:03:45;100818.84;;;7.26;53.15
46199;BME280;31928;52.104;10.030;2023-03-05T00:06:11;100808.19;;;7.26;53.07
46199;BME280;31928;52.104;10.030;2023-03-05T00:08:38;100815.34;;;7.25;53.21
46199;BME280;31928;52.104;10.030;2023-03-05T00:11:08;100817.00;;;7.26;53.26
46199;BME280;31928;52.104;10.030;2023-03-05T00:13:35;100810.38;;;7.22;53.43
46199;BME280;31928;52.104;10.030;2023-03-05T00:16:12;100807.16;;;7.27;53.34
46199;BME280;31928;52.104;10.030;2023-03-05T00:18:39;100805.41;;;7.19;53.29
46199;BME280;31928;52.104;10.030;2023-03-05T00:21:21;100801.81;;;7.27;53.42
46199;BME280;31928;52.104;10.030;2023-03-05T00:23:48;100804.75;;;7.17;53.56
46199;BME280;31928;52.104;10.030;2023-03-05T00:26:18;100811.06;;;7.16;53.80
46199;BME280;31928;52.104;10.030;2023-03-05T00:28:44;100795.47;;;7.14;53.71
46199;BME280;31928;52.104;10.030;2023-03-05T00:31:19;100794.78;;;7.12;53.57
46199;BME280;31928;52.104;10.030;2023-03-05T00:33:58;100789.41;;;7.19;53.47
46199;BME280;31928;52.104;10.030;2023-03-05T00:36:25;100790.50;;;7.11;53.80
46199;BME280;31928;52.104;10.030;2023-03-05T00:38:52;100788.84;;;7.10;53.74
46199;BME280;31928;52.104;10.030;2023-03-05T00:41:19;100781.66;;;7.10;53.79
46199;BME280;31928;52.104;10.030;2023-03-05T00:43:46;100782.50;;;7.11;53.74
46199;BME280;31928;52.104;10.030;2023-03-05T00:46:13;100785.97;;;7.11;53.30
46199;BME280;31928;52.104;10.030;2023-03-05T00:48:39;100782.50;;;7.11;53.56
46199;BME280;31928;52.104;10.030;2023-03-05T00:51:07;100777.78;;;7.13;53.35
46199;BME280;31928;52.104;10.030;2023-03-05T00:53:34;100780.84;;;7.10;53.28
46199;BME280;31928;52.104;10.030;2023-03-05T00:56:01;100772.84;;;7.10;52.80
46199;BME280;31928;52.104;10.030;2023-03-05T00:58:27;100780.66;;;7.11;53.01
46199;BME280;31928;52.104;10.030;2023-03-05T01:00:58;100775.97;;;7.13;53.07
46199;BME280;31928;52.104;10.030;2023-03-05T01:03:25;100768.50;;;7.09;53.15
46199;BME280;31928;52.104;10.030;2023-03-05T01:05:52;100761.91;;;7.33;52.29
46199;BME280;31928;52.104;10.030;2023-03-05T01:08:19;100758.50;;;7.11;52.75
46199;BME280;31928;52.104;10.030;2023-03-05T01:10:46;100762.16;;;7.10;53.19
46199;BME280;31928;52.104;10.030;2023-03-05T01:13:12;100753.50;;;7.08;52.94
46199;BME280;31928;52.104;10.030;2023-03-05T01:15:38;100746.56;;;7.07;52.95
46199;BME280;31928;52.104;10.030;2023-03-05T01:18:05;100738.56;;;7.07;53.11
46199;BME280;31928;52.104;10.030;2023-03-05T01:20:32;100750.84;;;7.08;53.09
46199;BME280;31928;52.104;10.030;2023-03-05T01:22:58;100744.47;;;7.31;52.06
46199;BME280;31928;52.104;10.030;2023-03-05T01:25:27;100739.19;;;7.09;52.94
46199;BME280;31928;52.104;10.030;2023-03-05T01:27:54;100730.72;;;7.05;53.14
46199;BME280;31928;52.104;10.030;2023-03-05T01:30:20;100719.25;;;7.05;53.38
46199;BME280;31928;52.104;10.030;2023-03-05T01:32:47;100718.56;;;7.03;53.43
46199;BME280;31928;52.104;10.030;2023-03-05T01:35:19;100717.22;;;7.07;53.54
46199;BME280;31928;52.104;10.030;2023-03-05T01:37:46;100709.94;;;7.01;53.43
46199;BME280;31928;52.104;10.030;2023-03-05T01:40:15;100695.81;;;7.00;53.61
46199;BME280;31928;52.104;10.030;2023-03-05T01:42:55;100697.72;;;7.06;53.44
46199;BME280;31928;52.104;10.030;2023-03-05T01:45:23;100699.66;;;6.98;53.42
46199;BME280;31928;52.104;10.030;2023-03-05T01:47:50;100697.00;;;6.98;53.28
46199;BME280;31928;52.104;10.030;2023-03-05T01:50:19;100686.97;;;7.00;53.39
46199;BME280;31928;52.104;10.030;2023-03-05T01:52:53;100679.97;;;6.99;53.35
46199;BME280;31928;52.104;10.030;2023-03-05T01:55:23;100690.38;;;6.94;53.70
46199;BME280;31928;52.104;10.030;2023-03-05T01:57:54;100686.50;;;6.96;53.63
46199;BME280;31928;52.104;10.030;2023-03-05T02:00:29;100678.69;;;6.95;53.43
46199;BME280;31928;52.104;10.030;2023-03-05T02:03:00;100674.53;;;6.92;53.40
46199;BME280;31928;52.104;10.030;2023-03-05T02:05:31;100675.72;;;6.90;53.79
46199;BME280;31928;52.104;10.030;2023-03-05T02:07:59;100669.13;;;6.86;53.75
46199;BME280;31928;52.104;10.030;2023-03-05T02:10:32;100672.44;;;6.88;53.90
46199;BME280;31928;52.104;10.030;2023-03-05T02:13:01;100667.50;;;6.85;54.19
46199;BME280;31928;52.104;10.030;2023-03-05T02:15:31;100655.16;;;6.84;54.04
46199;BME280;31928;52.104;10.030;2023-03-05T02:17:58;100661.50;;;6.83;53.94
46199;BME280;31928;52.104;10.030;2023-03-05T02:20:25;100656.75;;;7.07;52.71
46199;BME280;31928;52.104;10.030;2023-03-05T02:22:52;100650.47;;;6.86;54.03
46199;BME280;31928;52.104;10.030;2023-03-05T02:25:27;100656.28;;;6.89;53.87
46199;BME280;31928;52.104;10.030;2023-03-05T02:28:05;100650.13;;;6.89;53.87
46199;BME280;31928;52.104;10.030;2023-03-05T02:30:33;100645.88;;;6.80;54.17
46199;BME280;31928;52.104;10.030;2023-03-05T02:33:01;100655.50;;;6.81;54.25
46199;BME280;31928;52.104;10.030;2023-03-05T02:35:27;100644.22;;;6.79;54.59
46199;BME280;31928;52.104;10.030;2023-03-05T02:37:54;100647.69;;;6.79;54.24
46199;BME280;31928;52.104;10.030;2023-03-05T02:40:20;100640.56;;;6.80;54.41
46199;BME280;31928;52.104;10.030;2023-03-05T02:42:47;100637.03;;;6.79;54.61
46199;BME280;31928;52.104;10.030;2023-03-05T02:45:14;100639.91;;;6.78;54.36
46199;BME280;31928;52.104;10.030;2023-03-05T02:47:41;100631.66;;;7.02;53.35
46199;BME280;31928;52.104;10.030;2023-03-05T02:50:10;100641.19;;;6.82;54.19
46199;BME280;31928;52.104;10.030;2023-03-05T02:52:37;100632.56;;;6.80;54.21
46199;BME280;31928;52.104;10.030;2023-03-05T02:55:04;100632.47;;;7.02;52.96
46199;BME280;31928;52.104;10.030;2023-03-05T02:57:30;100630.72;;;6.80;54.18
46199;BME280;31928;52.104;10.030;2023-03-05T02:59:57;100623.53;;;6.81;54.25
46199;BME280;31928;52.104;10.030;2023-03-05T03:02:23;100621.25;;;6.78;54.53
46199;BME280;31928;52.104;10.030;2023-03-05T03:04:50;100615.72;;;6.79;54.23
46199;BME280;31928;52.104;10.030;2023-03-05T03:07:16;100613.25;;;6.78;54.78
46199;BME280;31928;52.104;10.030;2023-03-05T03:09:43;100616.66;;;7.01;53.25
46199;BME280;31928;52.104;10.030;2023-03-05T03:12:10;100611.25;;;6.80;54.47
46199;BME280;31928;52.104;10.030;2023-03-05T03:14:39;100602.59;;;6.78;54.55
46199;BME280;31928;52.104;10.030;2023-03-05T03:17:16;100606.53;;;6.82;54.59
46199;BME280;31928;52.104;10.030;2023-03-05T03:19:44;100610.59;;;6.78;54.71
46199;BME280;31928;52.104;10.030;2023-03-05T03:22:12;100598.47;;;6.75;54.99
46199;BME280;31928;52.104;10.030;2023-03-05T03:24:40;100595.78;;;6.75;54.78
46199;BME280;31928;52.104;10.030;2023-03-05T03:27:07;100592.31;;;6.75;54.94
46199;BME280;31928;52.104;10.030;2023-03-05T03:29:34;100592.31;;;6.75;55.17
46199;BME280;31928;52.104;10.030;2023-03-05T03:32:01;100587.00;;;6.75;55.09
46199;BME280;31928;52.104;10.030;2023-03-05T03:34:28;100584.13;;;6.76;54.93
46199;BME280;31928;52.104;10.030;2023-03-05T03:36:54;100584.94;;;6.77;55.26
46199;BME280;31928;52.104;10.030;2023-03-05T03:39:21;100578.81;;;6.76;55.13
46199;BME280;31928;52.104;10.030;2023-03-05T03:41:51;100583.31;;;6.76;54.96
46199;BME280;31928;52.104;10.030;2023-03-05T03:44:19;100584.13;;;6.76;55.35
46199;BME280;31928;52.104;10.030;2023-03-05T03:46:47;100578.81;;;6.76;55.44
46199;BME280;31928;52.104;10.030;2023-03-05T03:49:23;100572.28;;;6.79;55.33
46199;BME280;31928;52.104;10.030;2023-03-05T03:51:51;100580.47;;;6.77;55.84
46199;BME280;31928;52.104;10.030;2023-03-05T03:54:20;100571.81;;;6.75;55.99
46199;BME280;31928;52.104;10.030;2023-03-05T03:56:47;100573.47;;;6.76;56.00
46199;BME280;31928;52.104;10.030;2023-03-05T03:59:13;100562.81;;;6.76;56.14
46199;BME280;31928;52.104;10.030;2023-03-05T04:01:40;100562.00;;;6.76;56.20
46199;BME280;31928;52.104;10.030;2023-03-05T04:04:07;100555.66;;;6.77;56.17
46199;BME280;31928;52.104;10.030;2023-03-05T04:06:34;100556.69;;;6.76;56.51
46199;BME280;31928;52.104;10.030;2023-03-05T04:09:00;100548.03;;;6.74;56.51
46199;BME280;31928;52.104;10.030;2023-03-05T04:11:27;100555.84;;;6.75;56.15
46199;BME280;31928;52.104;10.030;2023-03-05T04:13:53;100547.03;;;6.75;56.21
46199;BME280;31928;52.104;10.030;2023-03-05T04:16:22;100546.38;;;6.73;56.74
46199;BME280;31928;52.104;10.030;2023-03-05T04:18:49;100554.56;;;6.71;56.61
46199;BME280;31928;52.104;10.030;2023-03-05T04:21:15;100549.22;;;6.71;56.58
46199;BME280;31928;52.104;10.030;2023-03-05T04:23:45;100547.56;;;6.70;56.70
46199;BME280;31928;52.104;10.030;2023-03-05T04:26:11;100535.81;;;6.94;54.95
46199;BME280;31928;52.104;10.030;2023-03-05T04:28:38;100524.44;;;6.71;56.25
46199;BME280;31928;52.104;10.030;2023-03-05T04:31:04;100531.56;;;6.70;56.54
46199;BME280;31928;52.104;10.030;2023-03-05T04:33:31;100522.50;;;6.94;54.63
46199;BME280;31928;52.104;10.030;2023-03-05T04:35:58;100518.09;;;6.72;56.11
46199;BME280;31928;52.104;10.030;2023-03-05T04:38:24;100523.78;;;6.69;56.11
46199;BME280;31928;52.104;10.030;2023-03-05T04:40:51;100521.13;;;6.69;56.18
46199;BME280;31928;52.104;10.030;2023-03-05T04:43:17;100526.63;;;6.67;56.33
46199;BME280;31928;52.104;10.030;2023-03-05T04:45:44;100516.78;;;6.68;56.21
46199;BME280;31928;52.104;10.030;2023-03-05T04:48:11;100521.31;;;6.67;56.38
46199;BME280;31928;52.104;10.030;2023-03-05T04:50:38;100521.31;;;6.67;56.54
46199;BME280;31928;52.104;10.030;2023-03-05T04:53:05;100517.63;;;6.68;56.78
46199;BME280;31928;52.104;10.030;2023-03-05T04:55:31;100522.13;;;6.68;56.61
46199;BME280;31928;52.104;10.030;2023-03-05T04:57:58;100521.13;;;6.69;56.70
46199;BME280;31928;52.104;10.030;2023-03-05T05:00:24;100515.59;;;6.70;56.38
46199;BME280;31928;52.104;10.030;2023-03-05T05:02:51;100525.44;;;6.70;56.56
46199;BME280;31928;52.104;10.030;2023-03-05T05:05:23;100517.25;;;6.71;56.76
46199;BME280;31928;52.104;10.030;2023-03-05T05:07:54;100516.06;;;6.74;56.38
46199;BME280;31928;52.104;10.030;2023-03-05T05:10:23;100513.78;;;6.71;56.69
46199;BME280;31928;52.104;10.030;2023-03-05T05:12:49;100514.78;;;6.70;56.71
46199;BME280;31928;52.104;10.030;2023-03-05T05:15:16;100516.97;;;6.95;54.99
46199;BME280;31928;52.104;10.030;2023-03-05T05:17:43;100510.53;;;6.75;55.97
46199;BME280;31928;52.104;10.030;2023-03-05T05:20:11;100511.56;;;6.74;56.13
46199;BME280;31928;52.104;10.030;2023-03-05T05:22:37;100501.09;;;6.73;56.10
46199;BME280;31928;52.104;10.030;2023-03-05T05:25:04;100507.44;;;6.72;56.21
46199;BME280;31928;52.104;10.030;2023-03-05T05:27:31;100502.13;;;6.72;56.17
46199;BME280;31928;52.104;10.030;2023-03-05T05:29:57;100502.13;;;6.72;55.85
46199;BME280;31928;52.104;10.030;2023-03-05T05:32:24;100505.41;;;6.74;56.11
46199;BME280;31928;52.104;10.030;2023-03-05T05:34:54;100506.31;;;6.95;54.75
46199;BME280;31928;52.104;10.030;2023-03-05T05:37:21;100500.09;;;6.74;55.95
46199;BME280;31928;52.104;10.030;2023-03-05T05:39:48;100496.78;;;6.72;55.79
46199;BME280;31928;52.104;10.030;2023-03-05T05:42:17;100500.47;;;6.71;56.08
46199;BME280;31928;52.104;10.030;2023-03-05T05:44:44;100494.28;;;6.70;55.95
46199;BME280;31928;52.104;10.030;2023-03-05T05:47:10;100490.81;;;6.70;55.81
46199;BME280;31928;52.104;10.030;2023-03-05T05:49:37;100488.97;;;6.70;55.73
46199;BME280;31928;52.104;10.030;2023-03-05T05:52:04;100487.13;;;6.71;56.18
46199;BME280;31928;52.104;10.030;2023-03-05T05:54:31;100483.81;;;6.69;56.21
46199;BME280;31928;52.104;10.030;2023-03-05T05:56:57;100489.81;;;6.71;56.04
46199;BME280;31928;52.104;10.030;2023-03-05T05:59:24;100487.13;;;6.71;55.87
46199;BME280;31928;52.104;10.030;2023-03-05T06:01:50;100488.81;;;6.72;55.86
46199;BME280;31928;52.104;10.030;2023-03-05T06:04:17;100486.13;;;6.72;55.87
46199;BME280;31928;52.104;10.030;2023-03-05T06:06:43;100479.97;;;6.71;55.70
46199;BME280;31928;52.104;10.030;2023-03-05T06:09:10;100480.81;;;6.72;56.00
46199;BME280;31928;52.104;10.030;2023-03-05T06:11:37;100486.13;;;6.72;55.95
46199;BME280;31928;52.104;10.030;2023-03-05T06:14:04;100480.16;;;6.70;55.65
46199;BME280;31928;52.104;10.030;2023-03-05T06:16:30;100482.31;;;6.95;54.54
46199;BME280;31928;52.104;10.030;2023-03-05T06:18:57;100480.44;;;6.75;55.46
46199;BME280;31928;52.104;10.030;2023-03-05T06:21:24;100480.81;;;6.72;55.58
46199;BME280;31928;52.104;10.030;2023-03-05T06:23:50;100484.16;;;6.95;54.31
46199;BME280;31928;52.104;10.030;2023-03-05T06:26:20;100474.09;;;6.76;55.33
46199;BME280;31928;52.104;10.030;2023-03-05T06:28:47;100479.16;;;6.71;55.21
46199;BME280;31928;52.104;10.030;2023-03-05T06:31:16;100478.78;;;6.74;55.44
46199;BME280;31928;52.104;10.030;2023-03-05T06:33:43;100473.81;;;6.71;55.04
46199;BME280;31928;52.104;10.030;2023-03-05T06:36:13;100476.28;;;6.72;55.21
46199;BME280;31928;52.104;10.030;2023-03-05T06:38:40;100474.63;;;6.71;55.20
46199;BME280;31928;52.104;10.030;2023-03-05T06:41:10;100471.78;;;6.73;55.26
46199;BME280;31928;52.104;10.030;2023-03-05T06:43:39;100469.97;;;6.73;55.32
46199;BME280;31928;52.104;10.030;2023-03-05T06:46:10;100464.97;;;6.70;55.38
46199;BME280;31928;52.104;10.030;2023-03-05T06:48:37;100476.09;;;6.74;55.21
46199;BME280;31928;52.104;10.030;2023-03-05T06:51:12;100475.38;;;6.80;55.30
46199;BME280;31928;52.104;10.030;2023-03-05T06:53:40;100466.09;;;6.76;55.22
46199;BME280;31928;52.104;10.030;2023-03-05T06:56:06;100470.28;;;6.99;54.36
46199;BME280;31928;52.104;10.030;2023-03-05T06:58:33;100471.66;;;6.81;55.40
46199;BME280;31928;52.104;10.030;2023-03-05T07:00:59;100473.53;;;6.80;55.16
46199;BME280;31928;52.104;10.030;2023-03-05T07:03:26;100473.53;;;6.80;55.52
46199;BME280;31928;52.104;10.030;2023-03-05T07:05:52;100472.72;;;6.80;55.39
46199;BME280;31928;52.104;10.030;2023-03-05T07:08:19;100470.03;;;6.80;55.58
46199;BME280;31928;52.104;10.030;2023-03-05T07:10:45;100472.72;;;6.80;55.50
46199;BME280;31928;52.104;10.030;2023-03-05T07:13:12;100474.34;;;6.81;55.84
46199;BME280;31928;52.104;10.030;2023-03-05T07:15:39;100469.00;;;6.81;55.74
46199;BME280;31928;52.104;10.030;2023-03-05T07:18:06;100466.53;;;6.79;56.01
46199;BME280;31928;52.104;10.030;2023-03-05T07:20:36;100474.19;;;6.82;55.94
46199;BME280;31928;52.104;10.030;2023-03-05T07:23:03;100461.00;;;6.81;56.01
46199;BME280;31928;52.104;10.030;2023-03-05T07:25:30;100472.31;;;6.83;56.39
46199;BME280;31928;52.104;10.030;2023-03-05T07:27:57;100468.00;;;6.82;56.44
46199;BME280;31928;52.104;10.030;2023-03-05T07:30:24;100465.16;;;6.83;56.37
46199;BME280;31928;52.104;10.030;2023-03-05T07:32:50;100462.47;;;6.83;56.32
46199;BME280;31928;52.104;10.030;2023-03-05T07:35:17;100466.00;;;6.84;56.29
46199;BME280;31928;52.104;10.030;2023-03-05T07:37:43;100458.00;;;6.84;56.21
46199;BME280;31928;52.104;10.030;2023-03-05T07:40:10;100449.00;;;6.85;56.59
46199;BME280;31928;52.104;10.030;2023-03-05T07:42:36;100452.16;;;7.09;54.85
46199;BME280;31928;52.104;10.030;2023-03-05T07:45:03;100452.94;;;6.89;56.27
46199;BME280;31928;52.104;10.030;2023-03-05T07:47:30;100453.94;;;6.88;56.80
46199;BME280;31928;52.104;10.030;2023-03-05T07:49:57;100451.28;;;6.88;56.40
46199;BME280;31928;52.104;10.030;2023-03-05T07:52:23;100449.44;;;6.88;56.61
46199;BME280;31928;52.104;10.030;2023-03-05T07:54:50;100446.56;;;6.90;56.64
46199;BME280;31928;52.104;10.030;2023-03-05T07:57:16;100438.41;;;6.91;56.47
46199;BME280;31928;52.104;10.030;2023-03-05T07:59:43;100437.38;;;6.92;56.36
46199;BME280;31928;52.104;10.030;2023-03-05T08:02:11;100445.84;;;6.96;56.45
46199;BME280;31928;52.104;10.030;2023-03-05T08:04:39;100453.63;;;6.97;56.58
46199;BME280;31928;52.104;10.030;2023-03-05T08:07:05;100446.50;;;6.98;56.41
46199;BME280;31928;52.104;10.030;2023-03-05T08:09:32;100442.63;;;7.00;56.57
46199;BME280;31928;52.104;10.030;2023-03-05T08:11:58;100446.72;;;7.03;56.76
46199;BME280;31928;52.104;10.030;2023-03-05T08:14:25;100441.38;;;7.03;56.31
46199;BME280;31928;52.104;10.030;2023-03-05T08:16:52;100433.22;;;7.04;56.27
46199;BME280;31928;52.104;10.030;2023-03-05T08:19:19;100436.53;;;7.06;55.89
46199;BME280;31928;52.104;10.030;2023-03-05T08:21:46;100435.69;;;7.06;56.19
46199;BME280;31928;52.104;10.030;2023-03-05T08:24:13;100432.66;;;7.09;57.14
46199;BME280;31928;52.104;10.030;2023-03-05T08:26:40;100435.78;;;7.12;60.95
46199;BME280;31928;52.104;10.030;2023-03-05T08:29:08;100434.84;;;7.19;59.75
46199;BME280;31928;52.104;10.030;2023-03-05T08:31:36;100423.03;;;7.28;57.39
46199;BME280;31928;52.104;10.030;2023-03-05T08:34:03;100423.16;;;7.41;59.01
46199;BME280;31928;52.104;10.030;2023-03-05T08:36:30;100424.47;;;7.52;56.25
46199;BME280;31928;52.104;10.030;2023-03-05T08:38:57;100426.59;;;7.83;56.25
46199;BME280;31928;52.104;10.030;2023-03-05T08:41:24;100422.47;;;7.81;57.34
46199;BME280;31928;52.104;10.030;2023-03-05T08:43:51;100429.91;;;7.92;55.88
46199;BME280;31928;52.104;10.030;2023-03-05T08:46:18;100419.72;;;8.02;55.37
46199;BME280;31928;52.104;10.030;2023-03-05T08:48:45;100412.78;;;8.07;54.59
46199;BME280;31928;52.104;10.030;2023-03-05T08:51:14;100421.50;;;8.16;56.55
46199;BME280;31928;52.104;10.030;2023-03-05T08:53:41;100416.16;;;8.16;56.72
46199;BME280;31928;52.104;10.030;2023-03-05T08:56:09;100418.44;;;8.19;54.89
46199;BME280;31928;52.104;10.030;2023-03-05T08:58:35;100417.03;;;8.23;55.44
46199;BME280;31928;52.104;10.030;2023-03-05T09:01:03;100409.44;;;8.26;53.91
46199;BME280;31928;52.104;10.030;2023-03-05T09:03:33;100418.28;;;8.27;53.06
46199;BME280;31928;52.104;10.030;2023-03-05T09:06:00;100424.59;;;8.53;53.67
46199;BME280;31928;52.104;10.030;2023-03-05T09:08:30;100407.81;;;8.32;53.52
46199;BME280;31928;52.104;10.030;2023-03-05T09:10:56;100414.72;;;8.53;53.72
46199;BME280;31928;52.104;10.030;2023-03-05T09:13:23;100415.84;;;8.32;52.86
46199;BME280;31928;52.104;10.030;2023-03-05T09:15:54;100403.13;;;8.34;55.43
46199;BME280;31928;52.104;10.030;2023-03-05T09:18:21;100405.16;;;8.32;53.39
46199;BME280;31928;52.104;10.030;2023-03-05T09:20:50;100403.63;;;8.56;53.32
46199;BME280;31928;52.104;10.030;2023-03-05T09:23:17;100404.38;;;8.38;51.43
46199;BME280;31928;52.104;10.030;2023-03-05T09:25:46;100396.56;;;8.36;51.71
46199;BME280;31928;52.104;10.030;2023-03-05T09:28:13;100400.06;;;8.37;51.71
46199;BME280;31928;52.104;10.030;2023-03-05T09:30:40;100402.72;;;8.37;50.90
46199;BME280;31928;52.104;10.030;2023-03-05T09:33:06;100394.50;;;8.38;50.75
46199;BME280;31928;52.104;10.030;2023-03-05T09:35:35;100393.69;;;8.38;50.64
46199;BME280;31928;52.104;10.030;2023-03-05T09:38:02;100404.38;;;8.38;51.44
46199;BME280;31928;52.104;10.030;2023-03-05T09:40:41;100399.28;;;8.42;51.23
46199;BME280;31928;52.104;10.030;2023-03-05T09:46:14;100401.34;;;8.47;51.39
46199;BME280;31928;52.104;10.030;2023-03-05T09:48:50;100401.94;;;8.42;50.78
46199;BME280;31928;52.104;10.030;2023-03-05T09:51:23;100401.94;;;8.42;51.24
46199;BME280;31928;52.104;10.030;2023-03-05T09:54:05;100393.72;;;8.44;50.60
46199;BME280;31928;52.104;10.030;2023-03-05T09:56:41;100392.50;;;8.46;50.45
46199;BME280;31928;52.104;10.030;2023-03-05T10:01:47;100392.50;;;8.46;51.75
46199;BME280;31928;52.104;10.030;2023-03-05T10:04:51;100385.97;;;8.55;51.42
46199;BME280;31928;52.104;10.030;2023-03-05T10:07:24;100389.25;;;8.57;50.99
46199;BME280;31928;52.104;10.030;2023-03-05T10:10:09;100391.34;;;8.62;51.76
46199;BME280;31928;52.104;10.030;2023-03-05T10:12:41;100382.25;;;8.56;50.74
46199;BME280;31928;52.104;10.030;2023-03-05T10:15:14;100386.16;;;8.60;51.12
46199;BME280;31928;52.104;10.030;2023-03-05T10:20:29;100387.81;;;8.61;54.71
46199;BME280;31928;52.104;10.030;2023-03-05T10:28:14;100372.91;;;8.86;50.40
46199;BME280;31928;52.104;10.030;2023-03-05T10:33:39;100375.41;;;8.94;49.91
46199;BME280;31928;52.104;10.030;2023-03-05T10:39:07;100381.16;;;9.04;51.13
46199;BME280;31928;52.104;10.030;2023-03-05T10:42:10;100372.53;;;9.08;51.87
46199;BME280;31928;52.104;10.030;2023-03-05T10:44:46;100371.53;;;9.29;51.82
46199;BME280;31928;52.104;10.030;2023-03-05T10:47:33;100368.44;;;9.19;52.82
46199;BME280;31928;52.104;10.030;2023-03-05T10:50:16;100376.06;;;9.22;51.84
46199;BME280;31928;52.104;10.030;2023-03-05T10:52:44;100369.69;;;9.23;51.30
46199;BME280;31928;52.104;10.030;2023-03-05T10:55:19;100370.91;;;9.27;50.75
46199;BME280;31928;52.104;10.030;2023-03-05T10:57:46;100365.97;;;9.24;49.86
46199;BME280;31928;52.104;10.030;2023-03-05T11:00:25;100358.97;;;9.29;50.28
46199;BME280;31928;52.104;10.030;2023-03-05T11:03:03;100354.06;;;9.26;50.25
46199;BME280;31928;52.104;10.030;2023-03-05T11:05:50;100354.88;;;9.27;50.67
46199;BME280;31928;52.104;10.030;2023-03-05T11:08:28;100352.41;;;9.19;50.62
46199;BME280;31928;52.104;10.030;2023-03-05T11:11:25;100337.59;;;9.23;50.46
46199;BME280;31928;52.104;10.030;2023-03-05T11:13:59;100335.34;;;9.26;50.59
46199;BME280;31928;52.104;10.030;2023-03-05T11:16:32;100325.22;;;9.35;50.64
46199;BME280;31928;52.104;10.030;2023-03-05T11:19:32;100328.53;;;9.50;51.59
46199;BME280;31928;52.104;10.030;2023-03-05T11:22:26;100323.59;;;9.66;51.19
46199;BME280;31928;52.104;10.030;2023-03-05T11:25:10;100313.69;;;9.73;49.44
46199;BME280;31928;52.104;10.030;2023-03-05T11:28:00;100308.72;;;9.83;50.03
46199;BME280;31928;52.104;10.030;2023-03-05T11:30:32;100309.53;;;9.83;49.15
46199;BME280;31928;52.104;10.030;2023-03-05T11:33:17;100304.00;;;9.85;48.80
46199;BME280;31928;52.104;10.030;2023-03-05T11:35:49;100309.97;;;9.80;48.35
46199;BME280;31928;52.104;10.030;2023-03-05T11:38:24;100298.84;;;9.77;48.03
46199;BME280;31928;52.104;10.030;2023-03-05T11:40:52;100298.47;;;9.73;47.86
46199;BME280;31928;52.104;10.030;2023-03-05T11:43:22;100296.81;;;9.72;47.92
46199;BME280;31928;52.104;10.030;2023-03-05T11:45:57;100294.34;;;9.71;48.44
46199;BME280;31928;52.104;10.030;2023-03-05T11:48:31;100296.97;;;9.90;49.44
46199;BME280;31928;52.104;10.030;2023-03-05T11:51:02;100284.47;;;9.65;47.74
46199;BME280;31928;52.104;10.030;2023-03-05T11:53:34;100283.66;;;9.58;47.27
46199;BME280;31928;52.104;10.030;2023-03-05T11:56:26;100278.28;;;9.64;48.10
46199;BME280;31928;52.104;10.030;2023-03-05T11:59:01;100272.75;;;9.53;47.74
46199;BME280;31928;52.104;10.030;2023-03-05T12:01:32;100270.09;;;9.47;47.52
46199;BME280;31928;52.104;10.030;2023-03-05T12:04:00;100272.56;;;9.42;47.81
46199;BME280;31928;52.104;10.030;2023-03-05T12:09:12;100256.50;;;9.42;47.43
46199;BME280;31928;52.104;10.030;2023-03-05T12:11:41;100251.59;;;9.39;46.71
46199;BME280;31928;52.104;10.030;2023-03-05T12:14:16;100252.38;;;9.46;47.33
46199;BME280;31928;52.104;10.030;2023-03-05T12:16:47;100245.13;;;9.65;48.88
46199;BME280;31928;52.104;10.030;2023-03-05T12:19:28;100248.28;;;9.43;47.39
46199;BME280;31928;52.104;10.030;2023-03-05T12:21:58;100244.97;;;9.35;47.38
46199;BME280;31928;52.104;10.030;2023-03-05T12:31:59;100234.94;;;9.24;49.31
46199;BME280;31928;52.104;10.030;2023-03-05T12:37:10;100226.25;;;9.28;49.73
46199;BME280;31928;52.104;10.030;2023-03-05T12:47:43;100212.44;;;9.51;49.39
46199;BME280;31928;52.104;10.030;2023-03-05T12:53:03;100199.59;;;9.72;47.65
46199;BME280;31928;52.104;10.030;2023-03-05T12:55:59;100195.03;;;9.85;48.73
46199;BME280;31928;52.104;10.030;2023-03-05T12:58:42;100192.53;;;9.90;48.80
46199;BME280;31928;52.104;10.030;2023-03-05T13:01:26;100189.88;;;9.90;48.22
46199;BME280;31928;52.104;10.030;2023-03-05T13:03:57;100192.13;;;9.87;47.39
46199;BME280;31928;52.104;10.030;2023-03-05T13:06:31;100180.41;;;9.88;47.62
46199;BME280;31928;52.104;10.030;2023-03-05T13:09:11;100181.22;;;9.88;47.57
46199;BME280;31928;52.104;10.030;2023-03-05T13:11:41;100173.63;;;9.85;45.79
46199;BME280;31928;52.104;10.030;2023-03-05T13:14:28;100170.69;;;10.00;47.43
46199;BME280;31928;52.104;10.030;2023-03-05T13:16:55;100167.59;;;9.96;46.14
46199;BME280;31928;52.104;10.030;2023-03-05T13:19:22;100166.59;;;9.97;46.37
46199;BME280;31928;52.104;10.030;2023-03-05T13:22:03;100168.59;;;10.08;47.20
46199;BME280;31928;52.104;10.030;2023-03-05T13:24:34;100153.38;;;10.02;45.44
46199;BME280;31928;52.104;10.030;2023-03-05T13:27:01;100156.69;;;10.04;45.96
46199;BME280;31928;52.104;10.030;2023-03-05T13:29:28;100146.78;;;10.05;45.78
46199;BME280;31928;52.104;10.030;2023-03-05T13:31:59;100148.38;;;10.12;46.27
46199;BME280;31928;52.104;10.030;2023-03-05T13:34:34;100141.94;;;10.19;45.83
46199;BME280;31928;52.104;10.030;2023-03-05T13:37:17;100135.94;;;10.24;45.13
46199;BME280;31928;52.104;10.030;2023-03-05T13:39:54;100131.78;;;10.28;44.92
46199;BME280;31928;52.104;10.030;2023-03-05T13:42:25;100122.28;;;10.32;44.92
46199;BME280;31928;52.104;10.030;2023-03-05T13:44:58;100130.03;;;10.40;45.31
46199;BME280;31928;52.104;10.030;2023-03-05T13:47:30;100125.28;;;10.42;44.76